createdAt,value
2018-12-24T00:01:16.351Z,0.20
2018-12-24T00:03:44.926Z,0.20
2018-12-24T00:06:13.494Z,0.20
2018-12-24T00:08:42.059Z,0.20
2018-12-24T00:11:10.961Z,0.30
2018-12-24T00:13:39.542Z,0.30
2018-12-24T00:16:08.404Z,0.20
2018-12-24T00:18:36.984Z,0.30
2018-12-24T00:21:05.527Z,0.30
2018-12-24T00:23:34.104Z,0.20
2018-12-24T00:26:02.659Z,0.30
2018-12-24T00:28:31.226Z,0.20
2018-12-24T00:30:59.787Z,0.30
2018-12-24T00:33:28.325Z,0.20
2018-12-24T00:35:57.264Z,0.20
2018-12-24T00:38:26.172Z,0.23
2018-12-24T00:40:54.734Z,0.20
2018-12-24T00:43:23.307Z,0.10
2018-12-24T00:45:51.896Z,0.20
2018-12-24T00:48:20.448Z,0.20
2018-12-24T00:50:48.999Z,0.30
2018-12-24T00:53:17.556Z,0.30
2018-12-24T00:55:46.147Z,0.17
2018-12-24T00:58:15.111Z,0.40
2018-12-24T01:00:43.681Z,0.23
2018-12-24T01:03:12.207Z,0.13
2018-12-24T01:05:40.755Z,0.20
2018-12-24T01:08:09.318Z,0.20
2018-12-24T01:10:37.952Z,0.10
2018-12-24T01:13:06.497Z,0.10
2018-12-24T01:15:35.075Z,0.20
2018-12-24T01:18:03.622Z,0.17
2018-12-24T01:20:33.878Z,0.20
2018-12-24T01:23:02.878Z,0.20
2018-12-24T01:25:31.455Z,0.10
2018-12-24T01:28:00.343Z,0.20
2018-12-24T01:30:28.903Z,0.20
2018-12-24T01:32:57.460Z,0.20
2018-12-24T01:35:26.303Z,0.10
2018-12-24T01:37:55.197Z,0.23
2018-12-24T01:40:23.780Z,0.20
2018-12-24T01:42:52.499Z,0.40
2018-12-24T01:45:21.050Z,0.40
2018-12-24T01:47:49.620Z,0.20
2018-12-24T01:50:18.176Z,0.30
2018-12-24T01:52:46.722Z,0.27
2018-12-24T01:55:15.287Z,0.37
2018-12-24T01:57:43.849Z,0.37
2018-12-24T02:00:12.501Z,0.30
2018-12-24T02:02:41.026Z,0.50
2018-12-24T02:05:09.608Z,0.50
2018-12-24T02:07:38.171Z,0.43
2018-12-24T02:10:06.829Z,0.43
2018-12-24T02:12:42.170Z,0.30
2018-12-24T02:15:05.664Z,0.30
2018-12-24T02:17:34.208Z,0.40
2018-12-24T02:20:06.512Z,0.40
2018-12-24T02:22:35.107Z,0.30
2018-12-24T02:25:03.670Z,0.30
2018-12-24T02:27:32.564Z,0.30
2018-12-24T02:30:01.135Z,0.23
2018-12-24T02:32:29.703Z,0.43
2018-12-24T02:34:58.298Z,0.20
2018-12-24T02:37:26.872Z,0.30
2018-12-24T02:39:55.400Z,0.30
2018-12-24T02:42:23.966Z,0.40
2018-12-24T02:44:52.536Z,0.40
2018-12-24T02:47:21.105Z,0.47
2018-12-24T02:49:49.656Z,0.30
2018-12-24T02:52:18.231Z,0.40
2018-12-24T02:54:46.793Z,0.30
2018-12-24T02:57:15.342Z,0.23
2018-12-24T02:59:44.219Z,0.30
2018-12-24T03:02:12.772Z,0.30
2018-12-24T03:04:41.325Z,0.40
2018-12-24T03:07:09.892Z,0.47
2018-12-24T03:09:38.440Z,0.40
2018-12-24T03:12:07.012Z,0.50
2018-12-24T03:14:35.563Z,0.40
2018-12-24T03:17:04.540Z,0.40
2018-12-24T03:19:33.100Z,0.33
2018-12-24T03:22:01.697Z,0.30
2018-12-24T03:24:30.257Z,0.50
2018-12-24T03:26:58.825Z,0.40
2018-12-24T03:29:27.370Z,0.30
2018-12-24T03:31:55.942Z,0.37
2018-12-24T03:34:24.486Z,0.30
2018-12-24T03:36:53.053Z,0.50
2018-12-24T03:39:21.639Z,0.30
2018-12-24T03:41:50.543Z,0.30
2018-12-24T03:44:19.125Z,0.30
2018-12-24T03:46:47.697Z,0.33
2018-12-24T03:49:16.704Z,0.30
2018-12-24T03:51:45.263Z,0.30
2018-12-24T03:54:13.843Z,0.37
2018-12-24T03:56:42.419Z,0.40
2018-12-24T03:59:11.330Z,0.30
2018-12-24T04:01:39.896Z,0.40
2018-12-24T04:04:08.475Z,0.30
2018-12-24T04:06:37.035Z,0.40
2018-12-24T04:09:06.661Z,0.30
2018-12-24T04:11:35.226Z,0.50
2018-12-24T04:14:03.797Z,0.40
2018-12-24T04:16:32.350Z,0.40
2018-12-24T04:19:01.212Z,0.50
2018-12-24T04:21:30.118Z,0.40
2018-12-24T04:23:58.666Z,0.50
2018-12-24T04:26:27.211Z,0.50
2018-12-24T04:28:55.778Z,0.47
2018-12-24T04:31:24.623Z,0.40
2018-12-24T04:33:53.192Z,0.40
2018-12-24T04:36:21.753Z,0.40
2018-12-24T04:38:50.314Z,0.40
2018-12-24T04:41:19.178Z,0.40
2018-12-24T04:43:47.752Z,0.40
2018-12-24T04:46:16.429Z,0.50
2018-12-24T04:48:44.970Z,0.60
2018-12-24T04:51:13.630Z,0.60
2018-12-24T04:53:42.378Z,0.50
2018-12-24T04:56:11.276Z,0.77
2018-12-24T04:58:40.264Z,0.70
2018-12-24T05:01:08.807Z,0.50
2018-12-24T05:03:37.373Z,0.60
2018-12-24T05:06:05.936Z,0.70
2018-12-24T05:08:34.799Z,0.60
2018-12-24T05:11:03.359Z,0.50
2018-12-24T05:13:40.690Z,0.60
2018-12-24T05:16:02.212Z,0.60
2018-12-24T05:18:30.795Z,0.67
2018-12-24T05:20:59.363Z,0.60
2018-12-24T05:23:28.239Z,0.57
2018-12-24T05:25:56.806Z,0.60
2018-12-24T05:28:25.339Z,0.63
2018-12-24T05:30:54.278Z,0.70
2018-12-24T05:33:22.815Z,0.60
2018-12-24T05:35:51.416Z,0.60
2018-12-24T05:38:19.985Z,0.70
2018-12-24T05:40:48.552Z,0.70
2018-12-24T05:43:17.462Z,0.80
2018-12-24T05:45:46.023Z,0.80
2018-12-24T05:48:14.919Z,0.70
2018-12-24T05:50:43.774Z,0.70
2018-12-24T05:53:12.588Z,0.70
2018-12-24T05:55:41.153Z,0.77
2018-12-24T05:58:10.126Z,0.80
2018-12-24T06:00:38.711Z,0.90
2018-12-24T06:03:07.264Z,0.80
2018-12-24T06:05:36.193Z,0.90
2018-12-24T06:08:04.732Z,0.90
2018-12-24T06:10:33.634Z,1.07
2018-12-24T06:13:02.179Z,0.93
2018-12-24T06:15:30.726Z,1.70
2018-12-24T06:17:59.280Z,1.60
2018-12-24T06:20:27.859Z,1.50
2018-12-24T06:22:56.398Z,1.40
2018-12-24T06:25:25.359Z,1.17
2018-12-24T06:27:53.910Z,1.00
2018-12-24T06:30:22.483Z,1.20
2018-12-24T06:32:51.409Z,1.03
2018-12-24T06:35:19.955Z,1.10
2018-12-24T06:37:48.873Z,0.87
2018-12-24T06:40:17.455Z,0.67
2018-12-24T06:42:45.997Z,0.80
2018-12-24T06:45:15.163Z,0.70
2018-12-24T06:47:43.799Z,0.67
2018-12-24T06:50:12.382Z,0.53
2018-12-24T06:52:40.922Z,0.90
2018-12-24T06:55:09.480Z,1.07
2018-12-24T06:57:38.051Z,0.87
2018-12-24T07:00:06.636Z,0.93
2018-12-24T07:02:35.199Z,0.83
2018-12-24T07:05:04.335Z,0.80
2018-12-24T07:07:32.942Z,0.83
2018-12-24T07:10:01.477Z,0.90
2018-12-24T07:12:31.084Z,0.70
2018-12-24T07:14:59.753Z,0.90
2018-12-24T07:17:28.323Z,0.77
2018-12-24T07:19:56.903Z,0.80
2018-12-24T07:22:25.815Z,0.83
2018-12-24T07:24:54.372Z,0.90
2018-12-24T07:27:22.928Z,0.83
2018-12-24T07:29:51.454Z,1.07
2018-12-24T07:32:20.036Z,1.30
2018-12-24T07:34:48.616Z,1.10
2018-12-24T07:37:17.816Z,1.00
2018-12-24T07:39:46.347Z,1.20
2018-12-24T07:42:14.919Z,1.10
2018-12-24T07:44:43.488Z,1.33
2018-12-24T07:47:12.057Z,1.60
2018-12-24T07:49:43.980Z,1.80
2018-12-24T07:52:12.583Z,1.43
2018-12-24T07:54:41.411Z,1.77
2018-12-24T07:57:09.951Z,1.73
2018-12-24T07:59:38.488Z,3.47
2018-12-24T08:02:07.059Z,1.60
2018-12-24T08:04:35.608Z,1.50
2018-12-24T08:07:04.199Z,1.60
2018-12-24T08:09:32.741Z,1.63
2018-12-24T08:12:01.668Z,1.57
2018-12-24T08:14:33.213Z,1.73
2018-12-24T08:17:00.859Z,1.73
2018-12-24T08:19:29.852Z,2.07
2018-12-24T08:21:58.438Z,2.23
2018-12-24T08:24:26.999Z,2.13
2018-12-24T08:26:55.579Z,2.37
2018-12-24T08:29:24.471Z,1.93
2018-12-24T08:31:53.023Z,2.43
2018-12-24T08:34:21.886Z,2.30
2018-12-24T08:36:50.461Z,2.30
2018-12-24T08:39:19.021Z,2.60
2018-12-24T08:41:47.743Z,2.43
2018-12-24T08:44:16.307Z,2.40
2018-12-24T08:46:45.158Z,2.20
2018-12-24T08:49:13.719Z,2.20
2018-12-24T08:51:42.285Z,1.60
2018-12-24T08:54:10.919Z,1.97
2018-12-24T08:56:39.507Z,2.10
2018-12-24T08:59:08.058Z,2.20
2018-12-24T09:01:36.664Z,1.87
2018-12-24T09:04:05.545Z,1.70
2018-12-24T09:06:34.132Z,1.93
2018-12-24T09:09:02.956Z,2.17
2018-12-24T09:11:31.494Z,2.23
2018-12-24T09:14:00.062Z,2.40
2018-12-24T09:16:28.597Z,2.43
2018-12-24T09:18:57.167Z,1.87
2018-12-24T09:21:26.042Z,2.30
2018-12-24T09:23:54.596Z,4.57
2018-12-24T09:26:23.545Z,3.93
2018-12-24T09:28:52.178Z,4.07
2018-12-24T09:31:20.722Z,3.80
2018-12-24T09:33:49.298Z,4.47
2018-12-24T09:36:18.173Z,3.87
2018-12-24T09:38:47.026Z,16.07
2018-12-24T09:41:15.926Z,2.80
2018-12-24T09:43:44.479Z,2.20
2018-12-24T09:46:13.303Z,2.13
2018-12-24T09:48:41.883Z,2.60
2018-12-24T09:51:10.512Z,2.33
2018-12-24T09:53:39.145Z,2.53
2018-12-24T09:56:07.707Z,2.67
2018-12-24T09:58:36.254Z,2.90
2018-12-24T10:01:04.814Z,2.50
2018-12-24T10:03:35.175Z,2.43
2018-12-24T10:06:06.611Z,2.53
2018-12-24T10:08:35.163Z,2.87
2018-12-24T10:11:03.751Z,2.80
2018-12-24T10:13:32.619Z,2.70
2018-12-24T10:16:01.197Z,2.53
2018-12-24T10:18:29.828Z,2.43
2018-12-24T10:21:12.455Z,2.73
2018-12-24T10:23:40.993Z,3.00
2018-12-24T10:26:09.583Z,2.57
2018-12-24T10:28:38.130Z,2.80
2018-12-24T10:31:06.734Z,2.70
2018-12-24T10:33:35.433Z,2.20
2018-12-24T10:36:04.020Z,2.53
2018-12-24T10:38:32.875Z,2.33
2018-12-24T10:41:01.424Z,2.60
2018-12-24T10:43:48.666Z,2.50
2018-12-24T10:46:26.682Z,2.40
2018-12-24T10:48:55.234Z,2.43
2018-12-24T10:51:23.786Z,2.40
2018-12-24T10:53:52.353Z,2.37
2018-12-24T10:56:20.915Z,2.53
2018-12-24T10:58:49.791Z,2.60
2018-12-24T11:01:18.355Z,2.30
2018-12-24T11:03:46.891Z,2.23
2018-12-24T11:06:15.847Z,2.10
2018-12-24T11:08:44.723Z,2.33
2018-12-24T11:11:13.296Z,1.83
2018-12-24T11:13:50.752Z,2.03
2018-12-24T11:16:19.320Z,1.90
2018-12-24T11:18:47.874Z,2.17
2018-12-24T11:21:16.450Z,2.00
2018-12-24T11:23:45.356Z,2.30
2018-12-24T11:26:14.029Z,2.10
2018-12-24T11:28:42.596Z,1.90
2018-12-24T11:31:11.476Z,1.80
2018-12-24T11:33:40.035Z,1.73
2018-12-24T11:36:08.603Z,2.20
2018-12-24T11:38:37.148Z,1.80
2018-12-24T11:41:06.123Z,1.70
2018-12-24T11:43:34.681Z,2.13
2018-12-24T11:46:03.721Z,1.83
2018-12-24T11:48:32.405Z,2.10
2018-12-24T11:51:01.242Z,2.40
2018-12-24T11:53:29.791Z,2.30
2018-12-24T11:55:58.350Z,2.00
2018-12-24T11:58:26.903Z,1.60
2018-12-24T12:00:55.446Z,1.80
2018-12-24T12:03:24.028Z,2.07
2018-12-24T12:05:53.956Z,1.80
2018-12-24T12:08:22.655Z,1.57
2018-12-24T12:10:51.195Z,1.63
2018-12-24T12:13:19.780Z,1.70
2018-12-24T12:15:48.355Z,1.80
2018-12-24T12:18:16.924Z,1.70
2018-12-24T12:20:52.547Z,1.43
2018-12-24T12:23:15.751Z,1.63
2018-12-24T12:25:44.316Z,1.80
2018-12-24T12:28:12.877Z,1.77
2018-12-24T12:30:41.870Z,1.60
2018-12-24T12:33:10.422Z,1.60
2018-12-24T12:35:38.993Z,1.70
2018-12-24T12:38:07.534Z,1.70
2018-12-24T12:40:36.153Z,1.70
2018-12-24T12:43:05.219Z,1.87
2018-12-24T12:45:33.819Z,1.60
2018-12-24T12:48:02.400Z,1.90
2018-12-24T12:50:30.956Z,1.93
2018-12-24T12:52:59.521Z,1.70
2018-12-24T12:55:28.082Z,1.77
2018-12-24T12:57:56.634Z,1.70
2018-12-24T13:00:25.467Z,1.43
2018-12-24T13:02:54.357Z,1.90
2018-12-24T13:05:22.887Z,1.90
2018-12-24T13:07:51.439Z,2.07
2018-12-24T13:10:19.988Z,2.07
2018-12-24T13:12:48.560Z,2.27
2018-12-24T13:15:17.098Z,2.27
2018-12-24T13:17:45.651Z,2.50
2018-12-24T13:20:14.515Z,2.50
2018-12-24T13:22:43.076Z,2.20
2018-12-24T13:25:11.899Z,2.40
2018-12-24T13:27:40.471Z,2.50
2018-12-24T13:30:09.012Z,2.30
2018-12-24T13:32:37.857Z,2.43
2018-12-24T13:35:06.418Z,2.70
2018-12-24T13:37:34.975Z,2.30
2018-12-24T13:40:03.991Z,2.40
2018-12-24T13:42:32.544Z,2.93
2018-12-24T13:45:01.473Z,2.47
2018-12-24T13:47:30.479Z,1.90
2018-12-24T13:49:59.392Z,2.20
2018-12-24T13:53:08.264Z,2.23
2018-12-24T13:55:36.666Z,1.97
2018-12-24T13:58:05.079Z,2.20
2018-12-24T14:00:33.802Z,2.47
2018-12-24T14:03:02.218Z,3.20
2018-12-24T14:05:30.965Z,3.40
2018-12-24T14:07:59.387Z,3.20
2018-12-24T14:10:28.136Z,3.03
2018-12-24T14:12:56.600Z,3.10
2018-12-24T14:15:25.108Z,2.70
2018-12-24T14:17:53.706Z,2.73
2018-12-24T14:20:22.105Z,2.60
2018-12-24T14:22:50.505Z,2.90
2018-12-24T14:25:18.926Z,2.90
2018-12-24T14:27:47.334Z,3.07
2018-12-24T14:30:15.758Z,3.53
2018-12-24T14:32:44.163Z,2.80
2018-12-24T14:35:12.935Z,2.80
2018-12-24T14:37:41.616Z,2.93
2018-12-24T14:40:10.038Z,3.00
2018-12-24T14:42:38.475Z,2.77
2018-12-24T14:45:07.475Z,2.67
2018-12-24T14:47:36.270Z,2.87
2018-12-24T14:50:06.370Z,2.63
2018-12-24T14:52:35.182Z,1.80
2018-12-24T14:55:03.954Z,2.40
2018-12-24T14:57:32.392Z,2.03
2018-12-24T15:00:00.868Z,2.07
2018-12-24T15:02:29.609Z,2.00
2018-12-24T15:04:58.064Z,2.07
2018-12-24T15:07:26.519Z,2.10
2018-12-24T15:09:55.002Z,2.40
2018-12-24T15:12:23.433Z,2.23
2018-12-24T15:14:51.883Z,2.50
2018-12-24T15:17:20.687Z,2.40
2018-12-24T15:19:49.681Z,2.80
2018-12-24T15:22:18.316Z,2.93
2018-12-24T15:24:46.771Z,2.70
2018-12-24T15:27:15.202Z,2.60
2018-12-24T15:29:43.734Z,2.50
2018-12-24T15:32:12.698Z,2.70
2018-12-24T15:34:41.162Z,3.10
2018-12-24T15:37:09.591Z,2.83
2018-12-24T15:39:38.055Z,2.80
2018-12-24T15:42:06.484Z,2.83
2018-12-24T15:44:34.931Z,2.77
2018-12-24T15:47:03.383Z,2.63
2018-12-24T15:49:31.818Z,3.20
2018-12-24T15:52:00.263Z,2.87
2018-12-24T15:54:28.727Z,3.30
2018-12-24T15:56:57.146Z,2.90
2018-12-24T15:59:25.967Z,3.10
2018-12-24T16:01:54.387Z,3.30
2018-12-24T16:04:23.132Z,2.90
2018-12-24T16:06:51.597Z,3.07
2018-12-24T16:09:20.043Z,3.47
2018-12-24T16:11:48.518Z,3.97
2018-12-24T16:14:17.242Z,4.43
2018-12-24T16:16:50.944Z,18.80
2018-12-24T16:19:16.582Z,26.07
2018-12-24T16:21:45.037Z,18.90
2018-12-24T16:24:13.474Z,4.07
2018-12-24T16:26:41.904Z,4.10
2018-12-24T16:29:10.342Z,2.90
2018-12-24T16:31:38.815Z,3.00
2018-12-24T16:34:07.231Z,3.10
2018-12-24T16:36:35.688Z,2.90
2018-12-24T16:39:05.765Z,3.70
2018-12-24T16:41:34.225Z,3.80
2018-12-24T16:44:02.656Z,3.57
2018-12-24T16:46:31.123Z,3.67
2018-12-24T16:48:59.865Z,3.67
2018-12-24T16:51:28.297Z,3.53
2018-12-24T16:53:56.758Z,3.70
2018-12-24T16:56:25.223Z,3.53
2018-12-24T16:58:53.667Z,3.77
2018-12-24T17:01:22.467Z,3.97
2018-12-24T17:03:50.908Z,3.97
2018-12-24T17:06:19.627Z,3.97
2018-12-24T17:08:48.059Z,5.97
2018-12-24T17:11:16.495Z,7.70
2018-12-24T17:13:44.941Z,8.53
2018-12-24T17:16:13.746Z,12.87
2018-12-24T17:18:42.543Z,9.43
2018-12-24T17:21:11.003Z,4.73
2018-12-24T17:23:39.435Z,4.40
2018-12-24T17:26:08.170Z,4.90
2018-12-24T17:28:37.111Z,4.00
2018-12-24T17:31:05.558Z,3.30
2018-12-24T17:33:34.039Z,3.37
2018-12-24T17:36:02.818Z,4.10
2018-12-24T17:38:31.293Z,6.27
2018-12-24T17:40:59.739Z,4.20
2018-12-24T17:43:28.203Z,3.03
2018-12-24T17:45:56.650Z,7.03
2018-12-24T17:48:25.534Z,3.00
2018-12-24T17:50:53.978Z,3.60
2018-12-24T17:53:22.435Z,2.40
2018-12-24T17:55:51.166Z,2.60
2018-12-24T17:58:19.947Z,3.20
2018-12-24T18:00:48.419Z,2.83
2018-12-24T18:03:17.202Z,2.23
2018-12-24T18:05:45.634Z,2.50
2018-12-24T18:08:14.399Z,3.13
2018-12-24T18:10:42.898Z,2.47
2018-12-24T18:13:11.351Z,3.63
2018-12-24T18:15:39.790Z,2.33
2018-12-24T18:18:08.255Z,2.40
2018-12-24T18:20:37.099Z,1.90
2018-12-24T18:23:05.575Z,2.10
2018-12-24T18:25:34.363Z,2.00
2018-12-24T18:28:03.131Z,1.80
2018-12-24T18:30:31.579Z,1.90
2018-12-24T18:33:00.015Z,2.03
2018-12-24T18:35:28.438Z,2.20
2018-12-24T18:37:57.264Z,1.90
2018-12-24T18:40:26.059Z,1.70
2018-12-24T18:42:54.508Z,1.57
2018-12-24T18:45:23.327Z,1.83
2018-12-24T18:47:51.775Z,1.67
2018-12-24T18:50:20.238Z,1.40
2018-12-24T18:52:49.076Z,1.70
2018-12-24T18:55:17.532Z,1.70
2018-12-24T18:57:45.974Z,1.43
2018-12-24T19:00:14.447Z,1.93
2018-12-24T19:02:42.857Z,1.80
2018-12-24T19:05:11.761Z,1.73
2018-12-24T19:07:40.580Z,1.63
2018-12-24T19:10:09.050Z,1.60
2018-12-24T19:12:37.923Z,1.50
2018-12-24T19:15:06.927Z,1.40
2018-12-24T19:17:41.390Z,1.33
2018-12-24T19:20:07.835Z,1.70
2018-12-24T19:22:36.646Z,1.60
2018-12-24T19:25:05.169Z,1.60
2018-12-24T19:27:33.587Z,1.80
2018-12-24T19:30:02.054Z,1.40
2018-12-24T19:32:30.500Z,1.40
2018-12-24T19:34:58.959Z,1.50
2018-12-24T19:37:27.392Z,1.93
2018-12-24T19:39:55.927Z,1.80
2018-12-24T19:42:24.749Z,1.70
2018-12-24T19:44:53.263Z,1.70
2018-12-24T19:47:21.691Z,12.00
2018-12-24T19:49:50.138Z,3.90
2018-12-24T19:52:18.623Z,1.80
2018-12-24T19:54:47.066Z,2.13
2018-12-24T19:57:15.499Z,4.00
2018-12-24T19:59:43.952Z,11.60
2018-12-24T20:02:12.413Z,12.20
2018-12-24T20:04:40.862Z,11.37
2018-12-24T20:07:09.302Z,7.47
2018-12-24T20:09:37.770Z,6.20
2018-12-24T20:12:06.285Z,16.90
2018-12-24T20:14:35.021Z,5.20
2018-12-24T20:17:03.495Z,5.50
2018-12-24T20:19:31.938Z,4.90
2018-12-24T20:22:00.808Z,4.93
2018-12-24T20:24:29.574Z,4.57
2018-12-24T20:26:58.105Z,5.00
2018-12-24T20:29:26.566Z,5.40
2018-12-24T20:31:55.044Z,2.70
2018-12-24T20:34:23.483Z,3.20
2018-12-24T20:36:51.927Z,3.57
2018-12-24T20:39:20.379Z,3.67
2018-12-24T20:41:49.151Z,3.60
2018-12-24T20:44:17.625Z,5.80
2018-12-24T20:46:46.103Z,6.00
2018-12-24T20:49:14.552Z,5.80
2018-12-24T20:51:43.351Z,4.57
2018-12-24T20:54:11.791Z,3.67
2018-12-24T20:56:40.230Z,5.70
2018-12-24T20:59:08.694Z,30.73
2018-12-24T21:01:37.157Z,25.37
2018-12-24T21:04:05.977Z,7.13
2018-12-24T21:06:34.464Z,27.33
2018-12-24T21:09:04.782Z,44.07
2018-12-24T21:11:33.351Z,12.60
2018-12-24T21:14:01.797Z,4.37
2018-12-24T21:16:30.251Z,6.53
2018-12-24T21:18:58.700Z,7.03
2018-12-24T21:21:27.150Z,9.10
2018-12-24T21:23:55.611Z,27.50
2018-12-24T21:26:24.066Z,17.80
2018-12-24T21:28:52.498Z,39.27
2018-12-24T21:31:20.971Z,37.57
2018-12-24T21:33:49.451Z,14.80
2018-12-24T21:36:18.252Z,7.13
2018-12-24T21:38:46.684Z,9.17
2018-12-24T21:41:15.126Z,8.70
2018-12-24T21:43:43.581Z,7.20
2018-12-24T21:46:12.048Z,7.00
2018-12-24T21:48:40.849Z,6.13
2018-12-24T21:51:09.394Z,5.80
2018-12-24T21:53:37.860Z,5.80
2018-12-24T21:56:06.295Z,6.67
2018-12-24T21:58:35.061Z,5.60
2018-12-24T22:01:03.501Z,5.87
2018-12-24T22:03:32.030Z,5.83
2018-12-24T22:06:00.460Z,5.03
2018-12-24T22:08:29.042Z,4.60
2018-12-24T22:10:57.534Z,5.90
2018-12-24T22:13:26.380Z,6.27
2018-12-24T22:15:55.168Z,6.87
2018-12-24T22:18:32.228Z,6.90
2018-12-24T22:20:56.472Z,7.43
2018-12-24T22:23:25.544Z,7.07
2018-12-24T22:25:54.412Z,7.50
2018-12-24T22:28:23.264Z,5.50
2018-12-24T22:30:51.823Z,5.80
2018-12-24T22:33:20.343Z,5.53
2018-12-24T22:35:48.778Z,5.83
2018-12-24T22:38:17.234Z,6.73
2018-12-24T22:40:45.706Z,7.70
2018-12-24T22:43:14.191Z,5.93
2018-12-24T22:45:42.646Z,6.17
2018-12-24T22:48:11.268Z,4.53
2018-12-24T22:50:39.710Z,4.20
2018-12-24T22:53:08.170Z,4.13
2018-12-24T22:55:36.615Z,4.27
2018-12-24T22:58:05.227Z,4.40
2018-12-24T23:00:35.348Z,4.97
2018-12-24T23:03:09.843Z,4.63
2018-12-24T23:05:38.281Z,3.60
2018-12-24T23:08:06.799Z,3.83
2018-12-24T23:10:35.239Z,3.50
2018-12-24T23:13:03.716Z,3.97
2018-12-24T23:15:32.595Z,3.87
2018-12-24T23:18:07.159Z,3.90
2018-12-24T23:20:35.607Z,3.87
2018-12-24T23:23:04.091Z,4.17
2018-12-24T23:25:32.867Z,4.10
2018-12-24T23:28:01.352Z,4.10
2018-12-24T23:30:29.841Z,3.77
2018-12-24T23:32:58.683Z,4.10
2018-12-24T23:35:27.479Z,4.77
2018-12-24T23:37:56.294Z,4.80
2018-12-24T23:40:24.758Z,5.03
2018-12-24T23:42:53.215Z,5.20
2018-12-24T23:45:21.740Z,5.23
2018-12-24T23:47:50.242Z,5.00
2018-12-24T23:50:18.716Z,4.20
2018-12-24T23:52:47.482Z,4.40
2018-12-24T23:55:16.252Z,5.57
2018-12-24T23:57:44.738Z,5.20
